sensor_id;sensor_type;location;lat;lon;timestamp;temperature;humidity
46608;DHT22;32330;51.936;7.184;2024-03-02T00:00:49;6.70;20.80
46608;DHT22;32330;51.936;7.184;2024-03-02T00:03:16;6.60;20.90
46608;DHT22;32330;51.936;7.184;2024-03-02T00:05:43;6.60;20.90
46608;DHT22;32330;51.936;7.184;2024-03-02T00:08:12;6.60;21.50
46608;DHT22;32330;51.936;7.184;2024-03-02T00:10:41;6.60;22.70
46608;DHT22;32330;51.936;7.184;2024-03-02T00:13:08;6.60;24.10
46608;DHT22;32330;51.936;7.184;2024-03-02T00:15:45;6.60;23.60
46608;DHT22;32330;51.936;7.184;2024-03-02T00:18:14;6.60;24.80
46608;DHT22;32330;51.936;7.184;2024-03-02T00:20:41;6.60;25.30
46608;DHT22;32330;51.936;7.184;2024-03-02T00:23:09;6.60;26.30
46608;DHT22;32330;51.936;7.184;2024-03-02T00:25:39;6.60;26.20
46608;DHT22;32330;51.936;7.184;2024-03-02T00:28:14;6.50;25.10
46608;DHT22;32330;51.936;7.184;2024-03-02T00:30:54;6.60;26.80
46608;DHT22;32330;51.936;7.184;2024-03-02T00:33:21;6.60;26.90
46608;DHT22;32330;51.936;7.184;2024-03-02T00:35:49;6.60;27.00
46608;DHT22;32330;51.936;7.184;2024-03-02T00:38:17;6.60;27.20
46608;DHT22;32330;51.936;7.184;2024-03-02T00:40:44;6.60;28.10
46608;DHT22;32330;51.936;7.184;2024-03-02T00:43:44;6.60;27.60
46608;DHT22;32330;51.936;7.184;2024-03-02T00:46:13;6.60;28.90
46608;DHT22;32330;51.936;7.184;2024-03-02T00:48:48;6.60;29.40
46608;DHT22;32330;51.936;7.184;2024-03-02T00:51:15;6.60;28.70
46608;DHT22;32330;51.936;7.184;2024-03-02T00:53:42;6.60;29.50
46608;DHT22;32330;51.936;7.184;2024-03-02T00:56:10;6.50;29.80
46608;DHT22;32330;51.936;7.184;2024-03-02T00:58:39;6.50;31.70
46608;DHT22;32330;51.936;7.184;2024-03-02T01:01:06;6.50;32.40
46608;DHT22;32330;51.936;7.184;2024-03-02T01:03:34;6.50;32.60
46608;DHT22;32330;51.936;7.184;2024-03-02T01:06:02;6.50;33.50
46608;DHT22;32330;51.936;7.184;2024-03-02T01:08:30;6.50;34.40
46608;DHT22;32330;51.936;7.184;2024-03-02T01:10:57;6.50;36.70
46608;DHT22;32330;51.936;7.184;2024-03-02T01:13:24;6.50;35.70
46608;DHT22;32330;51.936;7.184;2024-03-02T01:15:52;6.50;36.10
46608;DHT22;32330;51.936;7.184;2024-03-02T01:18:20;6.50;36.40
46608;DHT22;32330;51.936;7.184;2024-03-02T01:20:48;6.50;39.00
46608;DHT22;32330;51.936;7.184;2024-03-02T01:23:17;6.50;38.00
46608;DHT22;32330;51.936;7.184;2024-03-02T01:25:45;6.50;39.50
46608;DHT22;32330;51.936;7.184;2024-03-02T01:28:12;6.50;38.90
46608;DHT22;32330;51.936;7.184;2024-03-02T01:30:40;6.50;39.10
46608;DHT22;32330;51.936;7.184;2024-03-02T01:33:08;6.50;40.00
46608;DHT22;32330;51.936;7.184;2024-03-02T01:35:35;6.40;39.00
46608;DHT22;32330;51.936;7.184;2024-03-02T01:38:03;6.50;40.40
46608;DHT22;32330;51.936;7.184;2024-03-02T01:40:32;6.40;42.40
46608;DHT22;32330;51.936;7.184;2024-03-02T01:42:59;6.40;41.60
46608;DHT22;32330;51.936;7.184;2024-03-02T01:45:26;6.50;41.30
46608;DHT22;32330;51.936;7.184;2024-03-02T01:47:53;6.50;42.10
46608;DHT22;32330;51.936;7.184;2024-03-02T01:50:29;6.50;42.90
46608;DHT22;32330;51.936;7.184;2024-03-02T01:52:58;6.50;43.70
46608;DHT22;32330;51.936;7.184;2024-03-02T01:55:26;6.50;41.50
46608;DHT22;32330;51.936;7.184;2024-03-02T01:57:55;6.50;40.80
46608;DHT22;32330;51.936;7.184;2024-03-02T02:00:22;6.50;41.30
46608;DHT22;32330;51.936;7.184;2024-03-02T02:02:52;6.40;41.90
46608;DHT22;32330;51.936;7.184;2024-03-02T02:05:19;6.40;43.40
46608;DHT22;32330;51.936;7.184;2024-03-02T02:07:48;6.50;43.60
46608;DHT22;32330;51.936;7.184;2024-03-02T02:10:15;6.40;41.70
46608;DHT22;32330;51.936;7.184;2024-03-02T02:12:42;6.50;42.90
46608;DHT22;32330;51.936;7.184;2024-03-02T02:15:23;6.40;40.70
46608;DHT22;32330;51.936;7.184;2024-03-02T02:17:50;6.40;42.30
46608;DHT22;32330;51.936;7.184;2024-03-02T02:20:17;6.40;43.30
46608;DHT22;32330;51.936;7.184;2024-03-02T02:22:59;6.40;42.90
46608;DHT22;32330;51.936;7.184;2024-03-02T02:25:27;6.40;42.20
46608;DHT22;32330;51.936;7.184;2024-03-02T02:27:55;6.40;42.60
46608;DHT22;32330;51.936;7.184;2024-03-02T02:30:24;6.40;41.90
46608;DHT22;32330;51.936;7.184;2024-03-02T02:32:51;6.40;43.40
46608;DHT22;32330;51.936;7.184;2024-03-02T02:35:18;6.40;43.00
46608;DHT22;32330;51.936;7.184;2024-03-02T02:37:46;6.50;44.10
46608;DHT22;32330;51.936;7.184;2024-03-02T02:40:15;6.50;42.70
46608;DHT22;32330;51.936;7.184;2024-03-02T02:42:44;6.60;41.30
46608;DHT22;32330;51.936;7.184;2024-03-02T02:45:11;6.60;39.50
46608;DHT22;32330;51.936;7.184;2024-03-02T02:47:40;6.60;38.90
46608;DHT22;32330;51.936;7.184;2024-03-02T02:50:08;6.60;37.80
46608;DHT22;32330;51.936;7.184;2024-03-02T02:52:36;6.60;37.80
46608;DHT22;32330;51.936;7.184;2024-03-02T02:55:06;6.60;36.40
46608;DHT22;32330;51.936;7.184;2024-03-02T02:57:35;6.70;35.50
46608;DHT22;32330;51.936;7.184;2024-03-02T03:00:06;6.60;35.50
46608;DHT22;32330;51.936;7.184;2024-03-02T03:02:39;6.70;35.30
46608;DHT22;32330;51.936;7.184;2024-03-02T03:05:08;6.60;35.20
46608;DHT22;32330;51.936;7.184;2024-03-02T03:07:35;6.60;34.40
46608;DHT22;32330;51.936;7.184;2024-03-02T03:10:03;6.60;34.20
46608;DHT22;32330;51.936;7.184;2024-03-02T03:12:32;6.60;35.20
46608;DHT22;32330;51.936;7.184;2024-03-02T03:15:01;6.60;36.70
46608;DHT22;32330;51.936;7.184;2024-03-02T03:17:28;6.70;37.10
46608;DHT22;32330;51.936;7.184;2024-03-02T03:19:55;6.70;36.40
46608;DHT22;32330;51.936;7.184;2024-03-02T03:22:22;6.70;37.80
46608;DHT22;32330;51.936;7.184;2024-03-02T03:24:49;6.70;36.80
46608;DHT22;32330;51.936;7.184;2024-03-02T03:27:17;6.80;35.60
46608;DHT22;32330;51.936;7.184;2024-03-02T03:29:45;6.70;35.80
46608;DHT22;32330;51.936;7.184;2024-03-02T03:32:14;6.80;36.30
46608;DHT22;32330;51.936;7.184;2024-03-02T03:34:42;6.80;34.60
46608;DHT22;32330;51.936;7.184;2024-03-02T03:37:09;6.80;34.40
46608;DHT22;32330;51.936;7.184;2024-03-02T03:39:36;6.70;32.20
46608;DHT22;32330;51.936;7.184;2024-03-02T03:42:03;6.70;31.50
46608;DHT22;32330;51.936;7.184;2024-03-02T03:44:31;6.70;31.20
46608;DHT22;32330;51.936;7.184;2024-03-02T03:46:58;6.70;32.00
46608;DHT22;32330;51.936;7.184;2024-03-02T03:49:28;6.70;32.30
46608;DHT22;32330;51.936;7.184;2024-03-02T03:51:55;6.70;32.30
46608;DHT22;32330;51.936;7.184;2024-03-02T03:54:22;6.70;32.20
46608;DHT22;32330;51.936;7.184;2024-03-02T03:56:49;6.60;30.00
46608;DHT22;32330;51.936;7.184;2024-03-02T03:59:16;6.60;29.90
46608;DHT22;32330;51.936;7.184;2024-03-02T04:01:43;6.60;29.30
46608;DHT22;32330;51.936;7.184;2024-03-02T04:04:10;6.60;29.20
46608;DHT22;32330;51.936;7.184;2024-03-02T04:06:38;6.60;29.60
46608;DHT22;32330;51.936;7.184;2024-03-02T04:09:05;6.60;29.60
46608;DHT22;32330;51.936;7.184;2024-03-02T04:11:33;6.50;30.40
46608;DHT22;32330;51.936;7.184;2024-03-02T04:14:00;6.50;30.10
46608;DHT22;32330;51.936;7.184;2024-03-02T04:16:27;6.50;28.80
46608;DHT22;32330;51.936;7.184;2024-03-02T04:18:54;6.50;29.40
46608;DHT22;32330;51.936;7.184;2024-03-02T04:21:21;6.50;30.10
46608;DHT22;32330;51.936;7.184;2024-03-02T04:23:50;6.40;30.40
46608;DHT22;32330;51.936;7.184;2024-03-02T04:26:17;6.40;31.10
46608;DHT22;32330;51.936;7.184;2024-03-02T04:28:47;6.40;30.90
46608;DHT22;32330;51.936;7.184;2024-03-02T04:31:15;6.40;30.70
46608;DHT22;32330;51.936;7.184;2024-03-02T04:33:42;6.30;32.00
46608;DHT22;32330;51.936;7.184;2024-03-02T04:36:09;6.30;32.90
46608;DHT22;32330;51.936;7.184;2024-03-02T04:38:36;6.20;32.60
46608;DHT22;32330;51.936;7.184;2024-03-02T04:41:05;6.20;33.20
46608;DHT22;32330;51.936;7.184;2024-03-02T04:43:33;6.20;34.80
46608;DHT22;32330;51.936;7.184;2024-03-02T04:46:00;6.10;34.80
46608;DHT22;32330;51.936;7.184;2024-03-02T04:48:28;6.10;37.10
46608;DHT22;32330;51.936;7.184;2024-03-02T04:50:55;6.10;36.80
46608;DHT22;32330;51.936;7.184;2024-03-02T04:53:22;6.10;38.30
46608;DHT22;32330;51.936;7.184;2024-03-02T04:55:49;6.00;39.70
46608;DHT22;32330;51.936;7.184;2024-03-02T04:58:47;6.00;40.40
46608;DHT22;32330;51.936;7.184;2024-03-02T05:01:14;5.90;42.80
46608;DHT22;32330;51.936;7.184;2024-03-02T05:03:43;5.90;45.90
46608;DHT22;32330;51.936;7.184;2024-03-02T05:06:10;5.90;48.40
46608;DHT22;32330;51.936;7.184;2024-03-02T05:08:38;5.80;50.20
46608;DHT22;32330;51.936;7.184;2024-03-02T05:11:05;5.70;51.90
46608;DHT22;32330;51.936;7.184;2024-03-02T05:13:48;5.70;53.30
46608;DHT22;32330;51.936;7.184;2024-03-02T05:16:15;5.60;57.10
46608;DHT22;32330;51.936;7.184;2024-03-02T05:18:42;5.60;59.80
46608;DHT22;32330;51.936;7.184;2024-03-02T05:21:09;5.50;64.90
46608;DHT22;32330;51.936;7.184;2024-03-02T05:23:37;5.50;68.20
46608;DHT22;32330;51.936;7.184;2024-03-02T05:26:04;5.50;68.10
46608;DHT22;32330;51.936;7.184;2024-03-02T05:28:32;5.50;65.60
46608;DHT22;32330;51.936;7.184;2024-03-02T05:31:00;5.40;66.50
46608;DHT22;32330;51.936;7.184;2024-03-02T05:33:30;5.40;65.40
46608;DHT22;32330;51.936;7.184;2024-03-02T05:35:59;5.40;66.40
46608;DHT22;32330;51.936;7.184;2024-03-02T05:38:27;5.40;72.30
46608;DHT22;32330;51.936;7.184;2024-03-02T05:40:54;5.30;73.50
46608;DHT22;32330;51.936;7.184;2024-03-02T05:43:21;5.20;72.70
46608;DHT22;32330;51.936;7.184;2024-03-02T05:45:48;5.30;79.80
46608;DHT22;32330;51.936;7.184;2024-03-02T05:48:17;5.20;84.90
46608;DHT22;32330;51.936;7.184;2024-03-02T05:50:44;5.20;86.50
46608;DHT22;32330;51.936;7.184;2024-03-02T05:53:11;5.10;86.40
46608;DHT22;32330;51.936;7.184;2024-03-02T05:55:38;5.10;90.20
46608;DHT22;32330;51.936;7.184;2024-03-02T05:58:05;5.00;91.30
46608;DHT22;32330;51.936;7.184;2024-03-02T06:00:48;5.00;90.80
46608;DHT22;32330;51.936;7.184;2024-03-02T06:03:16;4.90;90.60
46608;DHT22;32330;51.936;7.184;2024-03-02T06:05:43;4.90;91.80
46608;DHT22;32330;51.936;7.184;2024-03-02T06:08:10;4.90;92.40
46608;DHT22;32330;51.936;7.184;2024-03-02T06:10:37;4.90;93.40
46608;DHT22;32330;51.936;7.184;2024-03-02T06:13:05;5.00;93.40
46608;DHT22;32330;51.936;7.184;2024-03-02T06:15:33;4.90;94.90
46608;DHT22;32330;51.936;7.184;2024-03-02T06:18:01;4.90;94.70
46608;DHT22;32330;51.936;7.184;2024-03-02T06:20:30;4.90;94.60
46608;DHT22;32330;51.936;7.184;2024-03-02T06:22:57;4.80;95.00
46608;DHT22;32330;51.936;7.184;2024-03-02T06:25:24;4.90;96.30
46608;DHT22;32330;51.936;7.184;2024-03-02T06:27:51;4.90;96.60
46608;DHT22;32330;51.936;7.184;2024-03-02T06:30:18;4.90;96.50
46608;DHT22;32330;51.936;7.184;2024-03-02T06:32:45;4.90;96.70
46608;DHT22;32330;51.936;7.184;2024-03-02T06:35:13;4.90;96.80
46608;DHT22;32330;51.936;7.184;2024-03-02T06:37:41;4.90;97.50
46608;DHT22;32330;51.936;7.184;2024-03-02T06:40:09;4.90;98.00
46608;DHT22;32330;51.936;7.184;2024-03-02T06:42:36;4.90;97.60
46608;DHT22;32330;51.936;7.184;2024-03-02T06:45:04;4.90;98.00
46608;DHT22;32330;51.936;7.184;2024-03-02T06:47:31;4.90;97.60
46608;DHT22;32330;51.936;7.184;2024-03-02T06:49:58;4.90;97.60
46608;DHT22;32330;51.936;7.184;2024-03-02T06:52:25;5.00;97.80
46608;DHT22;32330;51.936;7.184;2024-03-02T06:54:53;5.00;98.60
46608;DHT22;32330;51.936;7.184;2024-03-02T06:57:20;5.00;98.60
46608;DHT22;32330;51.936;7.184;2024-03-02T06:59:47;5.00;98.50
46608;DHT22;32330;51.936;7.184;2024-03-02T07:02:16;5.00;98.10
46608;DHT22;32330;51.936;7.184;2024-03-02T07:04:43;5.00;98.60
46608;DHT22;32330;51.936;7.184;2024-03-02T07:07:11;5.10;98.70
46608;DHT22;32330;51.936;7.184;2024-03-02T07:09:38;5.20;98.10
46608;DHT22;32330;51.936;7.184;2024-03-02T07:12:07;5.30;97.90
46608;DHT22;32330;51.936;7.184;2024-03-02T07:14:35;5.40;96.90
46608;DHT22;32330;51.936;7.184;2024-03-02T07:17:32;5.60;96.30
46608;DHT22;32330;51.936;7.184;2024-03-02T07:19:59;5.70;94.80
46608;DHT22;32330;51.936;7.184;2024-03-02T07:22:26;5.80;94.20
46608;DHT22;32330;51.936;7.184;2024-03-02T07:24:53;5.90;91.40
46608;DHT22;32330;51.936;7.184;2024-03-02T07:27:22;6.00;85.70
46608;DHT22;32330;51.936;7.184;2024-03-02T07:29:49;6.10;81.90
46608;DHT22;32330;51.936;7.184;2024-03-02T07:32:16;6.10;76.80
46608;DHT22;32330;51.936;7.184;2024-03-02T07:34:43;6.20;72.50
46608;DHT22;32330;51.936;7.184;2024-03-02T07:37:10;6.40;69.30
46608;DHT22;32330;51.936;7.184;2024-03-02T07:39:37;6.40;68.90
46608;DHT22;32330;51.936;7.184;2024-03-02T07:42:05;6.50;65.50
46608;DHT22;32330;51.936;7.184;2024-03-02T07:44:33;6.60;62.00
46608;DHT22;32330;51.936;7.184;2024-03-02T07:47:00;6.60;60.00
46608;DHT22;32330;51.936;7.184;2024-03-02T07:49:27;6.70;58.80
46608;DHT22;32330;51.936;7.184;2024-03-02T07:51:54;6.80;55.80
46608;DHT22;32330;51.936;7.184;2024-03-02T07:54:22;6.90;53.60
46608;DHT22;32330;51.936;7.184;2024-03-02T07:56:49;7.00;49.10
46608;DHT22;32330;51.936;7.184;2024-03-02T07:59:16;7.10;45.00
46608;DHT22;32330;51.936;7.184;2024-03-02T08:01:44;7.20;40.20
46608;DHT22;32330;51.936;7.184;2024-03-02T08:04:11;7.20;38.70
46608;DHT22;32330;51.936;7.184;2024-03-02T08:06:38;7.30;37.50
46608;DHT22;32330;51.936;7.184;2024-03-02T08:09:06;7.40;32.10
46608;DHT22;32330;51.936;7.184;2024-03-02T08:11:35;7.40;33.90
46608;DHT22;32330;51.936;7.184;2024-03-02T08:14:03;7.50;31.70
46608;DHT22;32330;51.936;7.184;2024-03-02T08:16:30;7.70;27.80
46608;DHT22;32330;51.936;7.184;2024-03-02T08:18:58;7.80;26.00
46608;DHT22;32330;51.936;7.184;2024-03-02T08:21:26;7.90;16.70
46608;DHT22;32330;51.936;7.184;2024-03-02T08:23:56;8.00;15.60
46608;DHT22;32330;51.936;7.184;2024-03-02T08:26:24;8.10;2.60
46608;DHT22;32330;51.936;7.184;2024-03-02T08:28:51;8.10;1.00
46608;DHT22;32330;51.936;7.184;2024-03-02T08:31:18;8.30;1.00
46608;DHT22;32330;51.936;7.184;2024-03-02T08:33:45;8.40;1.00
46608;DHT22;32330;51.936;7.184;2024-03-02T08:36:13;8.50;1.00
46608;DHT22;32330;51.936;7.184;2024-03-02T08:38:40;8.50;1.00
46608;DHT22;32330;51.936;7.184;2024-03-02T08:41:07;8.60;1.00
46608;DHT22;32330;51.936;7.184;2024-03-02T08:43:35;8.70;1.00
46608;DHT22;32330;51.936;7.184;2024-03-02T08:46:02;8.80;1.00
46608;DHT22;32330;51.936;7.184;2024-03-02T08:48:30;8.80;1.00
46608;DHT22;32330;51.936;7.184;2024-03-02T08:50:57;8.90;1.00
46608;DHT22;32330;51.936;7.184;2024-03-02T08:53:25;9.10;1.00
46608;DHT22;32330;51.936;7.184;2024-03-02T08:55:52;9.20;1.00
46608;DHT22;32330;51.936;7.184;2024-03-02T08:58:21;9.30;1.00
46608;DHT22;32330;51.936;7.184;2024-03-02T09:00:48;9.40;1.00
46608;DHT22;32330;51.936;7.184;2024-03-02T09:03:15;9.50;1.00
46608;DHT22;32330;51.936;7.184;2024-03-02T09:05:42;9.60;1.00
46608;DHT22;32330;51.936;7.184;2024-03-02T09:08:09;9.70;99.90
46608;DHT22;32330;51.936;7.184;2024-03-02T09:10:37;9.90;99.90
46608;DHT22;32330;51.936;7.184;2024-03-02T09:13:05;10.00;99.90
46608;DHT22;32330;51.936;7.184;2024-03-02T09:15:32;10.00;99.90
46608;DHT22;32330;51.936;7.184;2024-03-02T09:18:03;10.20;99.90
46608;DHT22;32330;51.936;7.184;2024-03-02T09:20:31;10.30;99.90
46608;DHT22;32330;51.936;7.184;2024-03-02T09:22:57;10.40;99.90
46608;DHT22;32330;51.936;7.184;2024-03-02T09:25:25;10.60;99.90
46608;DHT22;32330;51.936;7.184;2024-03-02T09:27:53;10.60;99.90
46608;DHT22;32330;51.936;7.184;2024-03-02T09:30:20;10.80;99.90
46608;DHT22;32330;51.936;7.184;2024-03-02T09:32:47;10.90;91.00
46608;DHT22;32330;51.936;7.184;2024-03-02T09:35:14;11.00;99.90
46608;DHT22;32330;51.936;7.184;2024-03-02T09:37:42;11.10;64.80
46608;DHT22;32330;51.936;7.184;2024-03-02T09:40:10;11.20;99.90
46608;DHT22;32330;51.936;7.184;2024-03-02T09:42:37;11.30;99.90
46608;DHT22;32330;51.936;7.184;2024-03-02T09:45:07;11.30;99.50
46608;DHT22;32330;51.936;7.184;2024-03-02T09:47:35;11.50;99.90
46608;DHT22;32330;51.936;7.184;2024-03-02T09:50:02;11.60;99.90
46608;DHT22;32330;51.936;7.184;2024-03-02T09:52:30;11.70;99.90
46608;DHT22;32330;51.936;7.184;2024-03-02T09:54:57;11.70;99.90
46608;DHT22;32330;51.936;7.184;2024-03-02T09:57:25;11.80;99.90
46608;DHT22;32330;51.936;7.184;2024-03-02T09:59:52;11.80;99.90
46608;DHT22;32330;51.936;7.184;2024-03-02T10:02:20;11.90;99.90
46608;DHT22;32330;51.936;7.184;2024-03-02T10:04:49;12.00;77.90
46608;DHT22;32330;51.936;7.184;2024-03-02T10:07:17;12.20;99.90
46608;DHT22;32330;51.936;7.184;2024-03-02T10:09:46;12.30;19.80
46608;DHT22;32330;51.936;7.184;2024-03-02T10:12:17;12.30;1.00
46608;DHT22;32330;51.936;7.184;2024-03-02T10:14:45;12.50;1.00
46608;DHT22;32330;51.936;7.184;2024-03-02T10:17:16;12.60;1.00
46608;DHT22;32330;51.936;7.184;2024-03-02T10:19:45;12.60;1.00
46608;DHT22;32330;51.936;7.184;2024-03-02T10:22:13;12.60;10.00
46608;DHT22;32330;51.936;7.184;2024-03-02T10:24:42;12.80;99.90
46608;DHT22;32330;51.936;7.184;2024-03-02T10:27:15;12.80;33.30
46608;DHT22;32330;51.936;7.184;2024-03-02T10:29:45;12.90;92.00
46608;DHT22;32330;51.936;7.184;2024-03-02T10:32:12;13.00;99.90
46608;DHT22;32330;51.936;7.184;2024-03-02T10:34:41;13.00;43.70
46608;DHT22;32330;51.936;7.184;2024-03-02T10:37:10;13.10;23.00
46608;DHT22;32330;51.936;7.184;2024-03-02T10:39:39;13.10;99.90
46608;DHT22;32330;51.936;7.184;2024-03-02T10:42:07;13.20;99.90
46608;DHT22;32330;51.936;7.184;2024-03-02T10:44:34;13.40;1.00
46608;DHT22;32330;51.936;7.184;2024-03-02T10:47:02;13.40;99.90
46608;DHT22;32330;51.936;7.184;2024-03-02T10:49:31;13.40;99.90
46608;DHT22;32330;51.936;7.184;2024-03-02T10:51:58;13.50;41.40
46608;DHT22;32330;51.936;7.184;2024-03-02T10:54:27;13.60;68.30
46608;DHT22;32330;51.936;7.184;2024-03-02T10:56:58;13.80;99.90
46608;DHT22;32330;51.936;7.184;2024-03-02T10:59:28;13.90;99.90
46608;DHT22;32330;51.936;7.184;2024-03-02T11:01:57;13.90;99.90
46608;DHT22;32330;51.936;7.184;2024-03-02T11:04:26;13.90;99.90
46608;DHT22;32330;51.936;7.184;2024-03-02T11:07:00;14.10;99.90
46608;DHT22;32330;51.936;7.184;2024-03-02T11:09:33;14.10;99.90
46608;DHT22;32330;51.936;7.184;2024-03-02T11:12:03;14.00;99.90
46608;DHT22;32330;51.936;7.184;2024-03-02T11:14:37;14.20;1.00
46608;DHT22;32330;51.936;7.184;2024-03-02T11:17:09;14.40;99.90
46608;DHT22;32330;51.936;7.184;2024-03-02T11:19:38;14.70;99.90
46608;DHT22;32330;51.936;7.184;2024-03-02T11:22:06;14.60;99.90
46608;DHT22;32330;51.936;7.184;2024-03-02T11:24:36;14.50;99.90
46608;DHT22;32330;51.936;7.184;2024-03-02T11:27:05;14.70;99.90
46608;DHT22;32330;51.936;7.184;2024-03-02T11:29:46;14.80;99.90
46608;DHT22;32330;51.936;7.184;2024-03-02T11:32:20;15.00;1.00
46608;DHT22;32330;51.936;7.184;2024-03-02T11:34:49;14.80;1.00
46608;DHT22;32330;51.936;7.184;2024-03-02T11:37:17;14.90;1.00
46608;DHT22;32330;51.936;7.184;2024-03-02T11:39:49;15.20;41.20
46608;DHT22;32330;51.936;7.184;2024-03-02T11:42:16;15.30;1.00
46608;DHT22;32330;51.936;7.184;2024-03-02T11:44:45;15.20;99.90
46608;DHT22;32330;51.936;7.184;2024-03-02T11:47:15;15.10;99.90
46608;DHT22;32330;51.936;7.184;2024-03-02T11:49:44;15.20;99.90
46608;DHT22;32330;51.936;7.184;2024-03-02T11:52:13;15.30;99.90
46608;DHT22;32330;51.936;7.184;2024-03-02T11:54:42;15.40;1.00
46608;DHT22;32330;51.936;7.184;2024-03-02T11:57:15;15.70;99.90
46608;DHT22;32330;51.936;7.184;2024-03-02T11:59:43;15.90;99.90
46608;DHT22;32330;51.936;7.184;2024-03-02T12:02:15;16.00;1.00
46608;DHT22;32330;51.936;7.184;2024-03-02T12:04:43;16.10;99.90
46608;DHT22;32330;51.936;7.184;2024-03-02T12:07:11;15.90;99.90
46608;DHT22;32330;51.936;7.184;2024-03-02T12:09:38;15.70;1.00
46608;DHT22;32330;51.936;7.184;2024-03-02T12:12:06;16.00;1.00
46608;DHT22;32330;51.936;7.184;2024-03-02T12:14:37;16.00;99.90
46608;DHT22;32330;51.936;7.184;2024-03-02T12:17:05;16.10;45.70
46608;DHT22;32330;51.936;7.184;2024-03-02T12:19:33;16.30;99.90
46608;DHT22;32330;51.936;7.184;2024-03-02T12:22:00;16.00;99.90
46608;DHT22;32330;51.936;7.184;2024-03-02T12:24:29;16.00;99.90
46608;DHT22;32330;51.936;7.184;2024-03-02T12:26:56;16.20;1.00
46608;DHT22;32330;51.936;7.184;2024-03-02T12:29:24;16.40;99.90
46608;DHT22;32330;51.936;7.184;2024-03-02T12:31:53;16.40;99.90
46608;DHT22;32330;51.936;7.184;2024-03-02T12:34:21;16.40;99.90
46608;DHT22;32330;51.936;7.184;2024-03-02T12:36:49;16.70;1.00
46608;DHT22;32330;51.936;7.184;2024-03-02T12:39:19;16.90;99.90
46608;DHT22;32330;51.936;7.184;2024-03-02T12:41:47;16.80;99.90
46608;DHT22;32330;51.936;7.184;2024-03-02T12:44:16;16.80;99.90
46608;DHT22;32330;51.936;7.184;2024-03-02T12:46:43;16.90;99.90
46608;DHT22;32330;51.936;7.184;2024-03-02T12:49:13;16.80;99.90
46608;DHT22;32330;51.936;7.184;2024-03-02T12:51:42;16.80;99.90
46608;DHT22;32330;51.936;7.184;2024-03-02T12:54:11;16.90;99.90
46608;DHT22;32330;51.936;7.184;2024-03-02T12:56:38;16.90;99.90
46608;DHT22;32330;51.936;7.184;2024-03-02T12:59:05;16.80;99.90
46608;DHT22;32330;51.936;7.184;2024-03-02T13:01:32;16.60;99.90
46608;DHT22;32330;51.936;7.184;2024-03-02T13:04:00;16.70;99.90
46608;DHT22;32330;51.936;7.184;2024-03-02T13:06:28;16.70;99.90
46608;DHT22;32330;51.936;7.184;2024-03-02T13:08:56;16.70;99.90
46608;DHT22;32330;51.936;7.184;2024-03-02T13:11:23;16.70;99.90
46608;DHT22;32330;51.936;7.184;2024-03-02T13:13:51;16.70;99.90
46608;DHT22;32330;51.936;7.184;2024-03-02T13:16:19;16.70;99.90
46608;DHT22;32330;51.936;7.184;2024-03-02T13:18:46;16.70;99.90
46608;DHT22;32330;51.936;7.184;2024-03-02T13:21:14;16.50;99.90
46608;DHT22;32330;51.936;7.184;2024-03-02T13:23:42;16.70;99.90
46608;DHT22;32330;51.936;7.184;2024-03-02T13:26:09;16.70;99.90
46608;DHT22;32330;51.936;7.184;2024-03-02T13:28:38;16.80;99.90
46608;DHT22;32330;51.936;7.184;2024-03-02T13:31:06;16.90;99.90
46608;DHT22;32330;51.936;7.184;2024-03-02T13:33:33;16.90;99.90
46608;DHT22;32330;51.936;7.184;2024-03-02T13:36:00;17.00;99.90
46608;DHT22;32330;51.936;7.184;2024-03-02T13:38:28;17.20;99.90
46608;DHT22;32330;51.936;7.184;2024-03-02T13:40:57;17.30;99.90
46608;DHT22;32330;51.936;7.184;2024-03-02T13:43:26;17.30;99.90
46608;DHT22;32330;51.936;7.184;2024-03-02T13:45:57;17.20;99.90
46608;DHT22;32330;51.936;7.184;2024-03-02T13:48:24;17.20;99.90
46608;DHT22;32330;51.936;7.184;2024-03-02T13:50:53;17.40;99.90
46608;DHT22;32330;51.936;7.184;2024-03-02T13:53:20;17.50;99.90
46608;DHT22;32330;51.936;7.184;2024-03-02T13:55:47;17.60;99.90
46608;DHT22;32330;51.936;7.184;2024-03-02T13:58:16;17.50;99.90
46608;DHT22;32330;51.936;7.184;2024-03-02T14:00:44;17.20;99.90
46608;DHT22;32330;51.936;7.184;2024-03-02T14:03:12;17.10;99.90
46608;DHT22;32330;51.936;7.184;2024-03-02T14:05:39;17.10;99.90
46608;DHT22;32330;51.936;7.184;2024-03-02T14:08:18;16.90;99.90
46608;DHT22;32330;51.936;7.184;2024-03-02T14:10:46;16.90;99.90
46608;DHT22;32330;51.936;7.184;2024-03-02T14:13:13;17.10;99.90
46608;DHT22;32330;51.936;7.184;2024-03-02T14:15:42;17.30;99.90
46608;DHT22;32330;51.936;7.184;2024-03-02T14:18:10;16.90;99.90
46608;DHT22;32330;51.936;7.184;2024-03-02T14:20:37;16.70;99.90
46608;DHT22;32330;51.936;7.184;2024-03-02T14:23:05;16.90;99.90
46608;DHT22;32330;51.936;7.184;2024-03-02T14:25:32;16.80;99.90
46608;DHT22;32330;51.936;7.184;2024-03-02T14:27:59;16.80;99.90
46608;DHT22;32330;51.936;7.184;2024-03-02T14:30:26;16.50;99.90
46608;DHT22;32330;51.936;7.184;2024-03-02T14:32:55;16.40;99.90
46608;DHT22;32330;51.936;7.184;2024-03-02T14:35:22;16.30;99.90
46608;DHT22;32330;51.936;7.184;2024-03-02T14:37:50;16.60;99.90
46608;DHT22;32330;51.936;7.184;2024-03-02T14:40:17;16.80;99.90
46608;DHT22;32330;51.936;7.184;2024-03-02T14:42:44;16.80;99.90
46608;DHT22;32330;51.936;7.184;2024-03-02T14:45:14;16.90;99.90
46608;DHT22;32330;51.936;7.184;2024-03-02T14:47:41;16.80;99.90
46608;DHT22;32330;51.936;7.184;2024-03-02T14:50:10;16.90;99.90
46608;DHT22;32330;51.936;7.184;2024-03-02T14:52:38;16.60;99.90
46608;DHT22;32330;51.936;7.184;2024-03-02T14:55:05;16.70;99.90
46608;DHT22;32330;51.936;7.184;2024-03-02T14:57:33;16.60;99.90
46608;DHT22;32330;51.936;7.184;2024-03-02T15:00:00;16.60;99.90
46608;DHT22;32330;51.936;7.184;2024-03-02T15:02:28;16.50;99.90
46608;DHT22;32330;51.936;7.184;2024-03-02T15:04:56;16.40;99.90
46608;DHT22;32330;51.936;7.184;2024-03-02T15:07:24;16.40;99.90
46608;DHT22;32330;51.936;7.184;2024-03-02T15:09:51;16.40;99.90
46608;DHT22;32330;51.936;7.184;2024-03-02T15:12:18;16.30;99.90
46608;DHT22;32330;51.936;7.184;2024-03-02T15:14:46;16.20;99.90
46608;DHT22;32330;51.936;7.184;2024-03-02T15:17:13;16.10;99.90
46608;DHT22;32330;51.936;7.184;2024-03-02T15:19:42;16.10;99.90
46608;DHT22;32330;51.936;7.184;2024-03-02T15:22:09;16.10;2.70
46608;DHT22;32330;51.936;7.184;2024-03-02T15:24:38;16.20;1.00
46608;DHT22;32330;51.936;7.184;2024-03-02T15:27:05;16.30;24.00
46608;DHT22;32330;51.936;7.184;2024-03-02T15:29:34;16.10;1.00
46608;DHT22;32330;51.936;7.184;2024-03-02T15:32:01;15.90;1.00
46608;DHT22;32330;51.936;7.184;2024-03-02T15:34:31;15.70;1.00
46608;DHT22;32330;51.936;7.184;2024-03-02T15:36:59;15.70;19.40
46608;DHT22;32330;51.936;7.184;2024-03-02T15:39:26;15.60;64.10
46608;DHT22;32330;51.936;7.184;2024-03-02T15:41:54;15.40;94.60
46608;DHT22;32330;51.936;7.184;2024-03-02T15:44:21;15.30;99.90
46608;DHT22;32330;51.936;7.184;2024-03-02T15:46:48;15.30;99.90